Graham, FL (32042)

11:29 PM EST on March 06, 2015 (GMT -0500)
Starke Rural Area | Change Station
CLOSE
Current Station
Personal Weather Station
Location: Starke, FL
Elevation: 147 ft
Nearby Weather Stations

Elev 147 ft 30.00 °N, 82.21 °W | Updated 7 minutes ago

Overcast
Overcast
46.9 °F
Feels Like 47 °F
N
2.7
Wind Variable Wind from NE

Today
High -- | Low -- °F
--% Chance of Precip.
Yesterday
High -- | Low -- °F
Precip. -- in
6:49 AM 6:30 PM
Full, 98% visible
Pressure 30.38 in
Visibility 7.0 miles
Clouds Overcast 600 ft
Windchill 47 °F
Dew Point 44 °F
Humidity 91%
Rainfall in
Snow Depth Not available.
UV 0 out of 12
Pollen 7.10 out of 12
Air Quality Not available.
Flu Activity Not available.
METAR K42J 070415Z AUTO 03005KT 7SM OVC006 07/07 A3038 RMK AO1 TSNO

More Conditions Fewer Conditions

Pressure 30.38 in
Visibility 7.0 miles
Clouds Overcast 600 ft
Windchill 47 °F
Dew Point 44 °F
Humidity 91%
Rainfall in
Snow Depth Not available.
UV 0 out of 12
Pollen 7.10 out of 12
Air Quality Not available.
Flu Activity Not available.
METAR K42J 070415Z AUTO 03005KT 7SM OVC006 07/07 A3038 RMK AO1 TSNO

More Conditions Fewer Conditions

10-Day Weather Forecast

Almanac

Astronomy

Mar. 06, 2015 Rise Set
Actual Time
Civil Twilight
Nautical Twilight
Astronomical Twilight
Moon
Length of Visible Light
Length of Day
Tomorrow will be .
, % of the Moon is Illuminated

Today's Extremes

State Highs State Lows

Community

WunderPhotos

Upload Photos

1,803,537 photos uploaded!

WunderBlogs® & News

Nearby

Air Quality

  Air Quality AQ Index Pollutant
Not available.

Snow Depth

Station Depth Elevation

Earthquake Activity

City Distance Mag. Time & Date
Minimum magnitude displayed is 2.5.

Coastal Water Temperatures

Place Temperature

Nearby Weather Stations